Time;durP1;ratioP1;P1;durP2;ratioP2;P2;SDS_P1;SDS_P2;PMS_P1;PMS_P2;Temp;Humidity;BMP_temperature;BMP_pressure;BME280_temperature;BME280_humidity;BME280_pressure;Samples;Min_cycle;Max_cycle;Signal;HPM_P1;HPM_P2
2020/12/26 00:00:53;;;;;;;6.25;4.30;;;;;;;;;;4811938;29;20207;-90
2020/12/26 00:03:20;;;;;;;5.63;3.55;;;;;;;;;;4811868;29;20183;-90
2020/12/26 00:05:48;;;;;;;6.03;4.30;;;;;;;;;;4811379;29;20190;-92
2020/12/26 00:08:15;;;;;;;4.65;3.80;;;;;;;;;;4812649;29;20242;-94
2020/12/26 00:10:42;;;;;;;7.03;4.55;;;;;;;;;;4813217;29;20206;-90
2020/12/26 00:13:09;;;;;;;5.45;3.28;;;;;;;;;;4812046;29;20245;-89
2020/12/26 00:15:36;;;;;;;5.43;4.93;;;;;;;;;;4811508;29;20488;-89
2020/12/26 00:18:06;;;;;;;5.63;4.70;;;;;;;;;;4811773;29;20188;-95
2020/12/26 00:20:33;;;;;;;6.70;5.40;;;;;;;;;;4811893;29;20220;-89
2020/12/26 00:23:01;;;;;;;6.20;4.82;;;;;;;;;;4811564;29;20669;-91
2020/12/26 00:25:28;;;;;;;7.22;6.32;;;;;;;;;;4811944;29;20213;-92
2020/12/26 00:27:55;;;;;;;8.10;6.72;;;;;;;;;;4811460;29;20187;-93
2020/12/26 00:30:22;;;;;;;7.22;5.90;;;;;;;;;;4811393;29;20550;-93
2020/12/26 00:32:52;;;;;;;10.82;6.88;;;;;;;;;;4811352;29;20213;-91
2020/12/26 00:35:19;;;;;;;7.68;5.95;;;;;;;;;;4811221;29;20335;-89
2020/12/26 00:37:46;;;;;;;7.00;5.95;;;;;;;;;;4811328;29;20238;-90
2020/12/26 00:40:14;;;;;;;6.05;5.40;;;;;;;;;;4811924;29;20286;-90
2020/12/26 00:42:41;;;;;;;8.50;5.45;;;;;;;;;;4811554;29;20202;-91
2020/12/26 00:45:08;;;;;;;6.38;5.63;;;;;;;;;;4810968;29;20254;-91
2020/12/26 00:47:35;;;;;;;6.13;5.53;;;;;;;;;;4811268;29;20534;-91
2020/12/26 00:50:02;;;;;;;6.97;5.75;;;;;;;;;;4811220;29;20217;-92
2020/12/26 00:52:29;;;;;;;11.38;5.78;;;;;;;;;;4811646;29;20675;-93
2020/12/26 00:54:56;;;;;;;7.05;6.32;;;;;;;;;;4810732;29;20226;-92
2020/12/26 00:57:24;;;;;;;8.75;6.20;;;;;;;;;;4811138;29;20237;-92
2020/12/26 00:59:51;;;;;;;7.00;5.45;;;;;;;;;;4811017;29;20226;-92
2020/12/26 01:02:18;;;;;;;7.78;6.10;;;;;;;;;;4811095;29;20281;-93
2020/12/26 01:04:46;;;;;;;6.13;5.15;;;;;;;;;;4810740;29;20198;-92
2020/12/26 01:07:13;;;;;;;9.15;5.00;;;;;;;;;;4811130;29;20600;-93
2020/12/26 01:09:40;;;;;;;8.50;5.65;;;;;;;;;;4810416;29;20207;-91
2020/12/26 01:12:07;;;;;;;6.25;5.68;;;;;;;;;;4811451;29;20259;-92
2020/12/26 01:14:35;;;;;;;6.57;5.90;;;;;;;;;;4810697;29;20229;-91
2020/12/26 01:17:02;;;;;;;7.00;6.05;;;;;;;;;;4811200;29;20207;-94
2020/12/26 01:19:29;;;;;;;8.30;5.43;;;;;;;;;;4811297;29;20198;-92
2020/12/26 01:21:56;;;;;;;9.70;6.13;;;;;;;;;;4810845;29;20221;-89
2020/12/26 01:24:23;;;;;;;8.00;5.68;;;;;;;;;;4810348;29;20453;-88
2020/12/26 01:26:50;;;;;;;8.95;6.70;;;;;;;;;;4810869;29;20195;-90
2020/12/26 01:29:18;;;;;;;10.90;7.00;;;;;;;;;;4810687;29;20226;-91
2020/12/26 01:31:51;;;;;;;9.85;6.65;;;;;;;;;;4810783;29;20194;-90
2020/12/26 01:34:19;;;;;;;9.77;7.80;;;;;;;;;;4810856;29;20465;-90
2020/12/26 01:36:49;;;;;;;9.60;7.40;;;;;;;;;;4810940;29;20325;-90
2020/12/26 01:39:17;;;;;;;9.25;7.18;;;;;;;;;;4811361;29;20206;-89
2020/12/26 01:41:47;;;;;;;10.73;7.63;;;;;;;;;;4810824;29;20504;-90
2020/12/26 01:44:14;;;;;;;9.88;7.20;;;;;;;;;;4810731;29;20468;-90
2020/12/26 01:46:41;;;;;;;9.98;7.95;;;;;;;;;;4810920;29;20228;-90
2020/12/26 01:49:09;;;;;;;8.45;7.30;;;;;;;;;;4810930;29;20516;-90
2020/12/26 01:51:39;;;;;;;8.20;7.25;;;;;;;;;;4810677;29;20203;-91
2020/12/26 01:54:06;;;;;;;9.55;8.00;;;;;;;;;;4810945;29;20213;-90
2020/12/26 01:56:33;;;;;;;12.90;8.63;;;;;;;;;;4812013;29;20676;-92
2020/12/26 01:59:08;;;;;;;10.05;8.18;;;;;;;;;;4812811;29;20244;-90
2020/12/26 02:01:36;;;;;;;12.20;8.70;;;;;;;;;;4794595;29;20644;-92
2020/12/26 02:04:04;;;;;;;10.00;9.00;;;;;;;;;;4807360;29;20202;-93
2020/12/26 02:06:36;;;;;;;11.35;8.10;;;;;;;;;;4810787;29;20207;-91
2020/12/26 02:09:05;;;;;;;11.60;7.60;;;;;;;;;;4811026;29;20233;-88
2020/12/26 02:11:32;;;;;;;9.55;7.47;;;;;;;;;;4802643;29;20194;-88
2020/12/26 02:13:59;;;;;;;10.88;8.00;;;;;;;;;;4810405;29;20217;-88
2020/12/26 02:16:26;;;;;;;11.60;7.38;;;;;;;;;;4809897;29;20225;-85
2020/12/26 02:18:54;;;;;;;8.52;7.25;;;;;;;;;;4810258;29;20195;-87
2020/12/26 02:21:22;;;;;;;10.02;7.07;;;;;;;;;;4811859;29;20205;-86
2020/12/26 02:23:51;;;;;;;14.15;8.60;;;;;;;;;;4813697;29;20194;-86
2020/12/26 02:26:29;;;;;;;9.75;7.15;;;;;;;;;;4813290;29;20635;-86
2020/12/26 02:28:56;;;;;;;10.23;6.80;;;;;;;;;;4813285;29;20242;-86
2020/12/26 02:31:23;;;;;;;10.02;7.07;;;;;;;;;;4812772;29;20601;-86
2020/12/26 02:33:50;;;;;;;11.50;6.68;;;;;;;;;;4813069;29;20211;-86
2020/12/26 02:36:17;;;;;;;10.95;7.30;;;;;;;;;;4812904;29;20215;-85
2020/12/26 02:38:44;;;;;;;8.50;6.60;;;;;;;;;;4812962;29;20490;-86
2020/12/26 02:41:12;;;;;;;9.27;7.00;;;;;;;;;;4813041;29;20191;-86
2020/12/26 02:43:39;;;;;;;9.55;6.85;;;;;;;;;;4813081;29;20191;-87
2020/12/26 02:46:06;;;;;;;12.75;8.38;;;;;;;;;;4812957;29;20273;-86
2020/12/26 02:48:33;;;;;;;8.70;7.07;;;;;;;;;;4812854;29;20215;-86
2020/12/26 02:51:00;;;;;;;10.95;7.68;;;;;;;;;;4813037;29;20191;-85
2020/12/26 02:53:27;;;;;;;10.32;8.05;;;;;;;;;;4812094;29;20621;-86
2020/12/26 02:55:54;;;;;;;9.30;7.72;;;;;;;;;;4812557;29;20223;-86
2020/12/26 02:58:22;;;;;;;10.60;8.57;;;;;;;;;;4812685;29;20231;-85
2020/12/26 03:00:49;;;;;;;8.35;6.82;;;;;;;;;;4812834;29;20187;-86
2020/12/26 03:03:16;;;;;;;9.25;7.15;;;;;;;;;;4812410;29;20228;-87
2020/12/26 03:05:43;;;;;;;7.75;6.55;;;;;;;;;;4812922;29;20187;-87
2020/12/26 03:08:10;;;;;;;8.43;6.57;;;;;;;;;;4812946;29;20229;-88
2020/12/26 03:10:37;;;;;;;8.98;6.25;;;;;;;;;;4813022;29;20205;-87
2020/12/26 03:13:04;;;;;;;8.82;6.43;;;;;;;;;;4812711;29;20205;-88
2020/12/26 03:15:32;;;;;;;8.70;5.68;;;;;;;;;;4812608;29;20589;-87
2020/12/26 03:17:58;;;;;;;9.52;6.20;;;;;;;;;;4812634;29;20583;-87
2020/12/26 03:20:25;;;;;;;6.03;5.43;;;;;;;;;;4812648;29;20272;-87
2020/12/26 03:22:52;;;;;;;7.90;6.07;;;;;;;;;;4812477;29;20480;-86
2020/12/26 03:25:19;;;;;;;8.93;5.93;;;;;;;;;;4812743;29;20195;-86
2020/12/26 03:27:46;;;;;;;9.57;6.03;;;;;;;;;;4812154;29;20218;-86
2020/12/26 03:30:13;;;;;;;8.15;6.38;;;;;;;;;;4812453;29;20231;-86
2020/12/26 03:32:41;;;;;;;5.88;5.15;;;;;;;;;;4811700;29;20194;-86
2020/12/26 03:35:08;;;;;;;10.23;6.15;;;;;;;;;;4812231;29;20610;-86
2020/12/26 03:37:36;;;;;;;8.35;6.35;;;;;;;;;;4812315;29;20226;-87
2020/12/26 03:40:04;;;;;;;6.43;5.53;;;;;;;;;;4812264;29;20619;-87
2020/12/26 03:42:31;;;;;;;7.15;4.78;;;;;;;;;;4812566;29;20203;-87
2020/12/26 03:44:58;;;;;;;6.63;5.82;;;;;;;;;;4812421;29;20199;-87
2020/12/26 03:47:25;;;;;;;9.70;6.28;;;;;;;;;;4812365;29;20198;-86
2020/12/26 03:49:52;;;;;;;7.65;5.40;;;;;;;;;;4812180;29;20210;-87
2020/12/26 03:52:19;;;;;;;11.35;5.72;;;;;;;;;;4812010;29;20222;-87
2020/12/26 03:54:46;;;;;;;7.90;5.00;;;;;;;;;;4812097;29;20255;-87
2020/12/26 03:57:14;;;;;;;6.40;5.55;;;;;;;;;;4812208;29;20490;-87
2020/12/26 03:59:40;;;;;;;6.38;5.40;;;;;;;;;;4811762;29;20238;-86
2020/12/26 04:02:07;;;;;;;6.00;5.20;;;;;;;;;;4811992;29;20198;-86
2020/12/26 04:04:35;;;;;;;9.13;5.68;;;;;;;;;;4812106;29;20595;-86
2020/12/26 04:07:03;;;;;;;9.07;6.07;;;;;;;;;;4812005;29;20199;-85
2020/12/26 04:09:29;;;;;;;6.95;6.18;;;;;;;;;;4811980;29;20195;-85
2020/12/26 04:11:56;;;;;;;8.52;6.57;;;;;;;;;;4811527;29;20612;-85
2020/12/26 04:14:23;;;;;;;7.40;6.13;;;;;;;;;;4811261;29;20221;-85
2020/12/26 04:16:56;;;;;;;9.25;6.68;;;;;;;;;;4811560;29;20597;-85
2020/12/26 04:19:23;;;;;;;8.43;6.35;;;;;;;;;;4811856;29;20218;-85
2020/12/26 04:21:50;;;;;;;9.00;5.93;;;;;;;;;;4811702;29;20581;-85
2020/12/26 04:24:18;;;;;;;8.02;5.25;;;;;;;;;;4811459;29;20542;-86
2020/12/26 04:26:45;;;;;;;8.65;5.88;;;;;;;;;;4811598;29;20218;-85
2020/12/26 04:29:13;;;;;;;8.10;6.10;;;;;;;;;;4794663;29;20253;-85
2020/12/26 04:31:40;;;;;;;6.85;5.20;;;;;;;;;;4795388;29;20207;-86
2020/12/26 04:34:06;;;;;;;7.18;5.53;;;;;;;;;;4811477;29;20207;-85
2020/12/26 04:36:33;;;;;;;7.35;5.25;;;;;;;;;;4811150;29;20222;-86
2020/12/26 04:39:00;;;;;;;9.07;6.60;;;;;;;;;;4811235;29;20615;-86
2020/12/26 04:41:28;;;;;;;9.55;6.78;;;;;;;;;;4811422;29;20199;-85
2020/12/26 04:43:55;;;;;;;6.10;5.03;;;;;;;;;;4810781;29;20629;-86
2020/12/26 04:46:27;;;;;;;7.40;4.88;;;;;;;;;;4811022;29;20554;-86
2020/12/26 04:49:04;;;;;;;7.93;5.15;;;;;;;;;;4811353;29;20195;-86
2020/12/26 04:51:34;;;;;;;8.35;5.13;;;;;;;;;;4810983;29;20448;-86
2020/12/26 04:54:14;;;;;;;7.22;4.97;;;;;;;;;;4811043;29;20229;-86
2020/12/26 04:56:44;;;;;;;5.20;4.70;;;;;;;;;;4810969;29;20218;-86
2020/12/26 04:59:13;;;;;;;6.18;4.80;;;;;;;;;;4779890;29;20501;-86
2020/12/26 05:01:41;;;;;;;7.00;4.47;;;;;;;;;;4811111;29;20191;-85
2020/12/26 05:04:10;;;;;;;8.02;5.55;;;;;;;;;;4811142;29;20199;-88
2020/12/26 05:06:48;;;;;;;7.13;4.72;;;;;;;;;;4811351;29;20210;-88
2020/12/26 05:09:20;;;;;;;6.50;5.10;;;;;;;;;;4811123;29;20518;-88
2020/12/26 05:11:53;;;;;;;4.70;4.30;;;;;;;;;;4811248;29;20242;-88
2020/12/26 05:14:21;;;;;;;7.35;4.38;;;;;;;;;;4811030;29;20186;-88
2020/12/26 05:16:48;;;;;;;6.60;5.15;;;;;;;;;;4810874;29;20242;-88
2020/12/26 05:19:15;;;;;;;8.23;5.20;;;;;;;;;;4810581;29;20206;-88
2020/12/26 05:21:43;;;;;;;5.38;4.80;;;;;;;;;;4811073;29;20622;-88
2020/12/26 05:24:12;;;;;;;9.57;5.55;;;;;;;;;;4811056;29;20539;-88
2020/12/26 05:26:44;;;;;;;7.85;5.50;;;;;;;;;;4810822;29;20198;-88
2020/12/26 05:29:13;;;;;;;8.82;5.30;;;;;;;;;;4810699;29;20257;-88
2020/12/26 05:31:48;;;;;;;5.70;4.75;;;;;;;;;;4811067;29;20298;-88
2020/12/26 05:34:16;;;;;;;5.53;4.93;;;;;;;;;;4810874;29;20478;-87
2020/12/26 05:36:43;;;;;;;14.65;5.25;;;;;;;;;;4810500;29;20253;-88
2020/12/26 05:39:12;;;;;;;5.43;4.90;;;;;;;;;;4810929;29;20203;-85
2020/12/26 05:41:42;;;;;;;7.05;4.85;;;;;;;;;;4810730;29;20194;-85
2020/12/26 05:44:11;;;;;;;14.05;4.65;;;;;;;;;;4810736;29;20198;-86
2020/12/26 05:46:38;;;;;;;7.38;4.97;;;;;;;;;;4810413;29;20195;-85
2020/12/26 05:49:38;;;;;;;6.07;4.85;;;;;;;;;;4810891;29;20458;-86
2020/12/26 05:52:08;;;;;;;5.85;4.85;;;;;;;;;;4810479;29;20569;-86
2020/12/26 05:54:36;;;;;;;7.93;4.78;;;;;;;;;;4810477;29;20191;-87
2020/12/26 05:57:11;;;;;;;7.43;4.32;;;;;;;;;;4813749;29;20225;-87
2020/12/26 05:59:40;;;;;;;8.13;5.55;;;;;;;;;;4814019;29;20229;-86
2020/12/26 06:02:25;;;;;;;14.18;4.53;;;;;;;;;;4814192;29;20190;-86
2020/12/26 06:04:55;;;;;;;6.25;4.80;;;;;;;;;;4813903;29;20471;-87
2020/12/26 06:07:25;;;;;;;18.83;6.32;;;;;;;;;;4814276;29;20195;-86
2020/12/26 06:09:55;;;;;;;6.10;4.75;;;;;;;;;;4813908;29;20193;-87
2020/12/26 06:12:24;;;;;;;5.50;4.70;;;;;;;;;;4813864;29;20187;-87
2020/12/26 06:14:53;;;;;;;7.18;5.43;;;;;;;;;;4814064;29;20199;-87
2020/12/26 06:17:28;;;;;;;6.80;4.63;;;;;;;;;;4782661;29;20233;-87
2020/12/26 06:19:58;;;;;;;6.30;5.28;;;;;;;;;;4814193;29;20202;-86
2020/12/26 06:22:25;;;;;;;5.72;4.40;;;;;;;;;;4814065;29;20211;-86
2020/12/26 06:24:54;;;;;;;6.28;4.82;;;;;;;;;;4813817;29;20205;-87
2020/12/26 06:27:25;;;;;;;5.88;4.70;;;;;;;;;;4813822;29;20207;-87
2020/12/26 06:29:53;;;;;;;5.70;4.70;;;;;;;;;;4813466;29;20226;-86
2020/12/26 06:32:20;;;;;;;7.47;4.85;;;;;;;;;;4813300;29;20206;-85
2020/12/26 06:34:47;;;;;;;7.03;5.50;;;;;;;;;;4782397;29;20465;-86
2020/12/26 06:37:14;;;;;;;9.48;5.90;;;;;;;;;;4813505;29;20253;-86
2020/12/26 06:39:41;;;;;;;5.68;4.82;;;;;;;;;;4813584;29;20199;-86
2020/12/26 06:42:19;;;;;;;6.72;4.78;;;;;;;;;;4813555;29;20292;-87
2020/12/26 06:44:48;;;;;;;6.97;5.25;;;;;;;;;;4813308;29;20195;-87
2020/12/26 06:47:40;;;;;;;5.72;4.85;;;;;;;;;;4813686;29;20195;-86
2020/12/26 06:50:22;;;;;;;5.72;4.22;;;;;;;;;;4799648;29;20210;-86
2020/12/26 06:52:49;;;;;;;8.43;5.43;;;;;;;;;;4811375;29;20211;-87
2020/12/26 06:55:40;;;;;;;4.20;3.80;;;;;;;;;;4813276;29;20190;-86
2020/12/26 06:58:09;;;;;;;4.13;3.72;;;;;;;;;;4812729;29;20604;-86
2020/12/26 07:00:36;;;;;;;5.82;3.42;;;;;;;;;;4813122;29;20203;-85
2020/12/26 07:03:25;;;;;;;3.45;3.00;;;;;;;;;;4813004;29;20277;-85
2020/12/26 07:05:53;;;;;;;3.22;2.90;;;;;;;;;;4812820;29;20546;-86
2020/12/26 07:08:33;;;;;;;3.53;3.00;;;;;;;;;;4812871;29;20195;-87
2020/12/26 07:11:21;;;;;;;3.50;3.13;;;;;;;;;;4813070;29;20198;-87
2020/12/26 07:13:51;;;;;;;5.53;3.05;;;;;;;;;;4813396;29;20206;-87
2020/12/26 07:16:42;;;;;;;5.53;3.00;;;;;;;;;;4812708;29;20191;-85
2020/12/26 07:19:47;;;;;;;4.43;3.03;;;;;;;;;;4812843;29;20198;-86
2020/12/26 07:22:16;;;;;;;6.50;3.88;;;;;;;;;;4812531;29;20195;-86
2020/12/26 07:24:45;;;;;;;4.82;3.22;;;;;;;;;;4812742;29;20198;-86
2020/12/26 07:27:27;;;;;;;3.95;3.00;;;;;;;;;;4812735;29;20201;-86
2020/12/26 07:30:09;;;;;;;6.28;4.53;;;;;;;;;;4812616;29;20341;-85
2020/12/26 07:32:55;;;;;;;4.68;4.05;;;;;;;;;;4812412;29;20498;-86
2020/12/26 07:35:40;;;;;;;7.68;4.20;;;;;;;;;;4812493;29;20198;-87
2020/12/26 07:38:14;;;;;;;6.15;4.20;;;;;;;;;;4812376;29;20620;-88
2020/12/26 07:40:46;;;;;;;5.93;3.83;;;;;;;;;;4812557;29;20234;-88
2020/12/26 07:43:14;;;;;;;7.57;3.80;;;;;;;;;;4812581;29;20195;-88
2020/12/26 07:45:43;;;;;;;4.38;3.40;;;;;;;;;;4812607;29;20187;-88
2020/12/26 07:48:11;;;;;;;4.90;4.40;;;;;;;;;;4812329;29;20210;-88
2020/12/26 07:50:41;;;;;;;5.45;4.20;;;;;;;;;;4812362;29;20210;-88
2020/12/26 07:53:09;;;;;;;5.10;4.60;;;;;;;;;;4812206;29;20183;-88
2020/12/26 07:55:38;;;;;;;6.32;5.15;;;;;;;;;;4813004;29;20190;-88
2020/12/26 07:58:07;;;;;;;8.55;4.93;;;;;;;;;;4812038;29;20215;-88
2020/12/26 08:00:36;;;;;;;5.07;4.57;;;;;;;;;;4812285;29;20206;-88
2020/12/26 08:03:05;;;;;;;7.15;5.13;;;;;;;;;;4812154;29;20233;-88
2020/12/26 08:05:34;;;;;;;6.72;4.63;;;;;;;;;;4812044;29;20246;-87
2020/12/26 08:08:13;;;;;;;5.72;5.22;;;;;;;;;;4812315;29;20187;-88
2020/12/26 08:10:40;;;;;;;5.65;4.85;;;;;;;;;;4812090;29;20678;-89
2020/12/26 08:13:12;;;;;;;7.03;5.53;;;;;;;;;;4812272;29;20223;-88
2020/12/26 08:15:39;;;;;;;5.95;5.05;;;;;;;;;;4812144;29;20260;-89
2020/12/26 08:18:06;;;;;;;7.85;5.95;;;;;;;;;;4811240;29;20210;-89
2020/12/26 08:20:35;;;;;;;9.80;6.05;;;;;;;;;;4811876;29;20528;-88
2020/12/26 08:23:03;;;;;;;9.07;5.88;;;;;;;;;;4811663;29;20195;-89
2020/12/26 08:25:32;;;;;;;7.50;6.55;;;;;;;;;;4811933;29;20214;-88
2020/12/26 08:27:59;;;;;;;7.30;5.50;;;;;;;;;;4811648;29;20261;-89
2020/12/26 08:30:29;;;;;;;6.97;5.55;;;;;;;;;;4811849;29;20227;-88
2020/12/26 08:33:25;;;;;;;8.93;6.20;;;;;;;;;;4811441;29;20205;-88
2020/12/26 08:36:01;;;;;;;7.07;6.25;;;;;;;;;;4811822;29;20202;-88
2020/12/26 08:38:36;;;;;;;8.52;6.38;;;;;;;;;;4811271;29;20245;-88
2020/12/26 08:41:03;;;;;;;12.85;6.72;;;;;;;;;;4811736;29;20247;-88
2020/12/26 08:43:30;;;;;;;7.07;6.28;;;;;;;;;;4811646;29;20199;-89
2020/12/26 08:45:57;;;;;;;10.25;6.25;;;;;;;;;;4811167;29;20205;-88
2020/12/26 08:48:26;;;;;;;10.40;6.95;;;;;;;;;;4811234;29;20202;-89
2020/12/26 08:50:57;;;;;;;6.72;5.75;;;;;;;;;;4811413;29;20310;-89
2020/12/26 08:53:24;;;;;;;8.32;6.20;;;;;;;;;;4811193;29;20190;-88
2020/12/26 08:55:54;;;;;;;11.10;7.63;;;;;;;;;;4811421;29;20218;-90
2020/12/26 08:58:29;;;;;;;10.18;6.95;;;;;;;;;;4811201;29;20290;-90
2020/12/26 09:00:58;;;;;;;10.82;7.45;;;;;;;;;;4811203;29;20206;-87
2020/12/26 09:03:26;;;;;;;8.65;6.25;;;;;;;;;;4811259;29;20298;-86
2020/12/26 09:05:55;;;;;;;9.25;7.75;;;;;;;;;;4811019;29;20215;-87
2020/12/26 09:08:28;;;;;;;11.90;8.40;;;;;;;;;;4810837;29;20291;-86
2020/12/26 09:11:05;;;;;;;9.23;7.45;;;;;;;;;;4811176;29;20565;-86
2020/12/26 09:13:34;;;;;;;12.77;8.85;;;;;;;;;;4810904;29;20214;-86
2020/12/26 09:16:09;;;;;;;12.70;8.20;;;;;;;;;;4810673;29;20566;-86
2020/12/26 09:18:41;;;;;;;11.85;7.78;;;;;;;;;;4810698;29;20221;-87
2020/12/26 09:21:21;;;;;;;8.93;6.85;;;;;;;;;;4810739;29;20442;-87
2020/12/26 09:23:48;;;;;;;11.68;8.93;;;;;;;;;;4810783;29;20281;-85
2020/12/26 09:26:17;;;;;;;10.70;8.00;;;;;;;;;;4810540;29;20312;-87
2020/12/26 09:28:51;;;;;;;10.95;7.60;;;;;;;;;;4810831;29;20244;-86
2020/12/26 09:31:20;;;;;;;10.98;8.77;;;;;;;;;;4812751;29;20260;-86
2020/12/26 09:33:47;;;;;;;9.93;7.38;;;;;;;;;;4814367;29;20194;-86
2020/12/26 09:36:17;;;;;;;9.90;8.00;;;;;;;;;;4814569;29;20194;-86
2020/12/26 09:38:44;;;;;;;11.38;8.95;;;;;;;;;;4814329;29;20719;-87
2020/12/26 09:41:14;;;;;;;10.70;8.30;;;;;;;;;;4814643;29;20558;-88
2020/12/26 09:43:43;;;;;;;11.88;7.63;;;;;;;;;;4814546;29;20213;-88
2020/12/26 09:46:10;;;;;;;11.13;8.10;;;;;;;;;;4814468;29;20293;-88
2020/12/26 09:48:38;;;;;;;8.45;5.38;;;;;;;;;;4814676;29;20440;-88
2020/12/26 09:51:09;;;;;;;9.18;6.10;;;;;;;;;;4814553;29;20186;-88
2020/12/26 09:53:36;;;;;;;7.03;5.32;;;;;;;;;;4814458;29;20263;-88
2020/12/26 09:56:07;;;;;;;7.00;5.78;;;;;;;;;;4814576;29;20217;-88
2020/12/26 09:58:34;;;;;;;10.55;6.65;;;;;;;;;;4813914;29;20593;-88
2020/12/26 10:01:02;;;;;;;8.05;5.07;;;;;;;;;;4814132;29;20246;-88
2020/12/26 10:03:29;;;;;;;9.52;5.50;;;;;;;;;;4814022;29;20206;-88
2020/12/26 10:05:56;;;;;;;8.02;5.80;;;;;;;;;;4814296;29;20211;-88
2020/12/26 10:08:23;;;;;;;6.50;5.85;;;;;;;;;;4814257;29;20198;-89
2020/12/26 10:10:50;;;;;;;6.63;5.32;;;;;;;;;;4814130;29;20313;-89
2020/12/26 10:13:17;;;;;;;8.32;5.32;;;;;;;;;;4814219;29;20198;-89
2020/12/26 10:15:44;;;;;;;8.73;6.00;;;;;;;;;;4814094;29;20198;-90
2020/12/26 10:18:12;;;;;;;9.02;5.15;;;;;;;;;;4813962;29;20214;-87
2020/12/26 10:20:39;;;;;;;10.35;6.38;;;;;;;;;;4813646;29;20216;-87
2020/12/26 10:23:06;;;;;;;9.27;5.78;;;;;;;;;;4814193;29;20465;-90
2020/12/26 10:25:33;;;;;;;10.75;7.88;;;;;;;;;;4813963;29;20210;-88
2020/12/26 10:28:00;;;;;;;7.65;6.50;;;;;;;;;;4813793;29;20195;-90
2020/12/26 10:30:27;;;;;;;8.02;5.40;;;;;;;;;;4813901;29;20231;-88
2020/12/26 10:32:54;;;;;;;9.40;6.28;;;;;;;;;;4813607;29;20194;-90
2020/12/26 10:35:21;;;;;;;8.02;6.05;;;;;;;;;;4813548;29;20459;-88
2020/12/26 10:37:48;;;;;;;9.50;6.53;;;;;;;;;;4813379;29;20499;-90
2020/12/26 10:40:15;;;;;;;8.95;5.82;;;;;;;;;;4813397;29;20211;-89
2020/12/26 10:42:42;;;;;;;9.27;5.30;;;;;;;;;;4813159;29;20210;-89
2020/12/26 10:45:09;;;;;;;8.27;6.35;;;;;;;;;;4813802;29;20210;-88
2020/12/26 10:47:36;;;;;;;6.80;5.35;;;;;;;;;;4813784;29;20199;-90
2020/12/26 10:50:05;;;;;;;8.98;6.95;;;;;;;;;;4813325;29;20191;-93
2020/12/26 10:52:33;;;;;;;9.30;5.45;;;;;;;;;;4813524;29;20198;-89
2020/12/26 10:55:00;;;;;;;7.82;6.00;;;;;;;;;;4813658;29;20203;-90
2020/12/26 10:57:27;;;;;;;8.27;6.80;;;;;;;;;;4813416;29;20218;-89
2020/12/26 10:59:54;;;;;;;9.55;7.30;;;;;;;;;;4812502;29;20238;-91
2020/12/26 11:02:23;;;;;;;9.63;5.88;;;;;;;;;;4812779;29;20655;-91
2020/12/26 11:04:50;;;;;;;7.25;6.20;;;;;;;;;;4813433;29;20198;-89
2020/12/26 11:07:17;;;;;;;9.15;6.55;;;;;;;;;;4813826;29;20213;-89
2020/12/26 11:09:45;;;;;;;8.50;5.80;;;;;;;;;;4813266;29;20511;-90
2020/12/26 11:12:16;;;;;;;9.00;6.20;;;;;;;;;;4815984;29;20244;-92
2020/12/26 11:14:47;;;;;;;8.48;6.18;;;;;;;;;;4816453;29;20294;-92
2020/12/26 11:17:14;;;;;;;9.48;6.72;;;;;;;;;;4817769;29;20210;-90
2020/12/26 11:19:54;;;;;;;9.98;6.55;;;;;;;;;;4810394;29;20239;-94
2020/12/26 11:22:21;;;;;;;9.75;7.00;;;;;;;;;;4812009;29;20226;-93
2020/12/26 11:24:55;;;;;;;8.27;6.55;;;;;;;;;;4813217;29;20222;-93
2020/12/26 11:27:24;;;;;;;12.73;6.75;;;;;;;;;;4813335;29;20293;-92
2020/12/26 11:29:53;;;;;;;12.70;7.22;;;;;;;;;;4813742;29;20317;-94
2020/12/26 11:32:20;;;;;;;8.75;7.20;;;;;;;;;;4813857;29;20214;-93
2020/12/26 11:34:47;;;;;;;14.00;9.88;;;;;;;;;;4813936;29;20215;-90
2020/12/26 11:37:25;;;;;;;12.50;9.25;;;;;;;;;;4813216;29;20242;-94
2020/12/26 11:39:56;;;;;;;12.93;8.93;;;;;;;;;;4815370;29;20234;-92
2020/12/26 11:45:04;;;;;;;11.32;8.93;;;;;;;;;;4816616;29;20218;-93
2020/12/26 11:50:55;;;;;;;14.98;10.63;;;;;;;;;;4742483;30;20486;-92
2020/12/26 11:53:22;;;;;;;17.10;11.73;;;;;;;;;;4740269;30;20190;-90
2020/12/26 11:55:50;;;;;;;16.95;11.73;;;;;;;;;;4740113;30;20217;-89
2020/12/26 11:58:17;;;;;;;18.25;11.55;;;;;;;;;;4739328;30;20202;-90
2020/12/26 12:00:44;;;;;;;12.48;10.25;;;;;;;;;;4739994;30;20277;-87
2020/12/26 12:03:10;;;;;;;13.15;11.00;;;;;;;;;;4739614;30;20205;-88
2020/12/26 12:05:37;;;;;;;14.65;11.30;;;;;;;;;;4739570;30;20227;-88
2020/12/26 12:08:04;;;;;;;13.23;9.75;;;;;;;;;;4736732;30;20227;-87
2020/12/26 12:10:31;;;;;;;15.90;11.65;;;;;;;;;;4724059;30;20213;-88
2020/12/26 12:13:00;;;;;;;17.85;11.10;;;;;;;;;;4723926;30;20204;-89
2020/12/26 12:15:27;;;;;;;19.05;10.32;;;;;;;;;;4721996;30;20213;-88
2020/12/26 12:17:53;;;;;;;17.35;10.48;;;;;;;;;;4722026;30;20210;-88
2020/12/26 12:20:20;;;;;;;14.65;10.38;;;;;;;;;;4721759;30;20501;-90
2020/12/26 12:22:47;;;;;;;18.55;10.57;;;;;;;;;;4801156;29;20233;-90
2020/12/26 12:25:14;;;;;;;14.68;11.02;;;;;;;;;;4811959;29;20214;-88
2020/12/26 12:27:41;;;;;;;13.05;9.73;;;;;;;;;;4811645;29;20260;-89
2020/12/26 12:30:09;;;;;;;11.30;9.38;;;;;;;;;;4811758;29;20215;-90
2020/12/26 12:32:36;;;;;;;16.63;11.00;;;;;;;;;;4811718;29;20581;-91
2020/12/26 12:35:03;;;;;;;14.02;10.55;;;;;;;;;;4811700;29;20294;-90
2020/12/26 12:37:31;;;;;;;12.43;9.68;;;;;;;;;;4811398;29;20322;-90
2020/12/26 12:39:58;;;;;;;13.95;10.73;;;;;;;;;;4811698;29;20609;-90
2020/12/26 12:42:28;;;;;;;13.88;10.43;;;;;;;;;;4811402;29;20230;-90
2020/12/26 12:44:56;;;;;;;12.00;10.60;;;;;;;;;;4811331;29;20202;-90
2020/12/26 12:47:24;;;;;;;12.90;10.27;;;;;;;;;;4811533;29;20195;-91
2020/12/26 12:49:51;;;;;;;11.18;8.15;;;;;;;;;;4810623;29;20224;-90
2020/12/26 12:52:19;;;;;;;10.10;8.55;;;;;;;;;;4810620;29;20217;-89
2020/12/26 12:54:47;;;;;;;9.80;7.50;;;;;;;;;;4810951;29;20588;-92
2020/12/26 12:57:14;;;;;;;8.63;7.45;;;;;;;;;;4808667;29;20187;-89
2020/12/26 12:59:42;;;;;;;7.65;6.85;;;;;;;;;;4810899;29;20317;-93
2020/12/26 13:02:10;;;;;;;10.60;7.85;;;;;;;;;;4810598;29;20711;-90
2020/12/26 13:04:38;;;;;;;8.32;7.50;;;;;;;;;;4810610;29;20286;-90
2020/12/26 13:07:06;;;;;;;10.10;8.30;;;;;;;;;;4811031;29;20194;-90
2020/12/26 13:09:33;;;;;;;11.15;8.40;;;;;;;;;;4808484;29;20470;-90
2020/12/26 13:12:00;;;;;;;11.50;8.20;;;;;;;;;;4810564;29;20230;-89
2020/12/26 13:14:27;;;;;;;11.63;7.10;;;;;;;;;;4810793;29;20198;-93
2020/12/26 13:16:55;;;;;;;10.38;7.60;;;;;;;;;;4811165;29;20202;-92
2020/12/26 13:19:22;;;;;;;15.07;8.63;;;;;;;;;;4810595;29;20560;-92
2020/12/26 13:21:53;;;;;;;9.00;8.00;;;;;;;;;;4810724;29;20501;-90
2020/12/26 13:24:20;;;;;;;10.35;7.85;;;;;;;;;;4810464;29;20218;-89
2020/12/26 13:26:48;;;;;;;10.68;9.15;;;;;;;;;;4810585;29;20212;-92
2020/12/26 13:29:15;;;;;;;8.27;6.78;;;;;;;;;;4810379;29;20222;-92
2020/12/26 13:31:43;;;;;;;10.35;8.02;;;;;;;;;;4810534;29;20615;-90
2020/12/26 13:34:11;;;;;;;9.82;7.45;;;;;;;;;;4810536;29;20456;-91
2020/12/26 13:36:39;;;;;;;9.32;7.30;;;;;;;;;;4810826;29;20206;-91
2020/12/26 13:39:09;;;;;;;10.18;7.65;;;;;;;;;;4810111;29;20234;-91
2020/12/26 13:41:39;;;;;;;7.93;6.10;;;;;;;;;;4810234;29;20211;-92
2020/12/26 13:44:06;;;;;;;8.73;6.85;;;;;;;;;;4810402;29;20562;-88
2020/12/26 13:46:34;;;;;;;9.98;5.93;;;;;;;;;;4810003;29;20202;-89
2020/12/26 13:49:01;;;;;;;10.02;7.30;;;;;;;;;;4809061;29;20230;-90
2020/12/26 13:51:28;;;;;;;9.35;6.65;;;;;;;;;;4811051;29;20214;-90
2020/12/26 13:53:55;;;;;;;10.40;7.28;;;;;;;;;;4810317;29;20212;-90
2020/12/26 13:56:24;;;;;;;11.07;6.95;;;;;;;;;;4810293;29;20271;-89
2020/12/26 13:59:02;;;;;;;7.32;6.63;;;;;;;;;;4810373;29;20246;-94
2020/12/26 14:01:29;;;;;;;8.70;7.40;;;;;;;;;;4809732;29;20202;-89
2020/12/26 14:03:57;;;;;;;14.70;8.07;;;;;;;;;;4804623;29;20296;-91
2020/12/26 14:06:31;;;;;;;10.90;8.35;;;;;;;;;;4810501;29;20267;-89
2020/12/26 14:08:59;;;;;;;8.68;6.90;;;;;;;;;;4805228;29;20207;-92
2020/12/26 14:11:27;;;;;;;8.55;6.68;;;;;;;;;;4810556;29;20289;-91
2020/12/26 14:13:54;;;;;;;11.60;10.40;;;;;;;;;;4810996;29;20293;-93
2020/12/26 14:16:22;;;;;;;14.63;10.90;;;;;;;;;;4811896;29;20191;-95
2020/12/26 14:18:56;;;;;;;11.32;7.88;;;;;;;;;;4814348;29;20294;-92
2020/12/26 14:21:31;;;;;;;12.90;8.82;;;;;;;;;;4814269;29;20222;-93
2020/12/26 14:23:58;;;;;;;29.20;23.77;;;;;;;;;;4814476;29;20481;-93
2020/12/26 14:26:26;;;;;;;11.85;9.00;;;;;;;;;;4814696;29;20549;-93
2020/12/26 14:28:53;;;;;;;15.40;13.80;;;;;;;;;;4814378;29;20380;-93
2020/12/26 14:31:20;;;;;;;14.00;8.35;;;;;;;;;;4814264;29;20206;-92
2020/12/26 14:33:48;;;;;;;13.00;8.68;;;;;;;;;;4814111;29;20585;-92
2020/12/26 14:36:15;;;;;;;10.90;7.30;;;;;;;;;;4813768;29;20287;-93
2020/12/26 14:38:43;;;;;;;11.88;7.35;;;;;;;;;;4813518;29;20313;-92
2020/12/26 14:41:10;;;;;;;8.45;7.47;;;;;;;;;;4813866;29;20238;-93
2020/12/26 14:43:38;;;;;;;7.72;6.55;;;;;;;;;;4815030;29;20206;-93
2020/12/26 14:46:07;;;;;;;10.18;9.18;;;;;;;;;;4814087;29;20219;-92
2020/12/26 14:48:34;;;;;;;9.75;6.70;;;;;;;;;;4814460;29;20506;-92
2020/12/26 14:51:01;;;;;;;7.18;6.07;;;;;;;;;;4813996;29;20209;-93
2020/12/26 14:53:28;;;;;;;8.40;6.78;;;;;;;;;;4813540;29;20457;-92
2020/12/26 14:55:55;;;;;;;8.25;6.15;;;;;;;;;;4813652;29;20194;-91